createdAt,value
2018-10-11T00:01:19.831Z,55.70
2018-10-11T00:03:48.110Z,56.40
2018-10-11T00:06:16.357Z,55.80
2018-10-11T00:08:44.604Z,55.60
2018-10-11T00:11:12.877Z,55.70
2018-10-11T00:13:41.169Z,55.60
2018-10-11T00:16:09.435Z,55.60
2018-10-11T00:18:37.664Z,55.60
2018-10-11T00:21:05.933Z,55.60
2018-10-11T00:23:34.156Z,55.60
2018-10-11T00:26:02.390Z,55.60
2018-10-11T00:28:30.677Z,55.60
2018-10-11T00:30:58.888Z,55.60
2018-10-11T00:33:27.112Z,55.60
2018-10-11T00:35:55.389Z,55.60
2018-10-11T00:38:23.826Z,55.70
2018-10-11T00:40:52.073Z,55.60
2018-10-11T00:43:20.331Z,55.70
2018-10-11T00:45:48.585Z,55.70
2018-10-11T00:48:16.800Z,55.70
2018-10-11T00:50:45.126Z,55.80
2018-10-11T00:53:13.379Z,55.70
2018-10-11T00:55:41.647Z,55.80
2018-10-11T00:58:09.921Z,55.70
2018-10-11T01:00:38.160Z,55.70
2018-10-11T01:03:06.408Z,55.70
2018-10-11T01:05:34.705Z,55.60
2018-10-11T01:08:02.953Z,55.60
2018-10-11T01:10:31.267Z,55.60
2018-10-11T01:12:59.478Z,55.60
2018-10-11T01:15:27.729Z,55.60
2018-10-11T01:17:55.979Z,55.60
2018-10-11T01:20:24.374Z,55.60
2018-10-11T01:22:52.617Z,55.70
2018-10-11T01:25:20.892Z,55.60
2018-10-11T01:27:49.156Z,55.60
2018-10-11T01:30:17.420Z,55.60
2018-10-11T01:32:45.658Z,55.60
2018-10-11T01:35:13.886Z,55.60
2018-10-11T01:37:42.120Z,55.60
2018-10-11T01:40:10.388Z,55.60
2018-10-11T01:42:38.667Z,55.60
2018-10-11T01:45:07.417Z,55.60
2018-10-11T01:47:35.690Z,55.60
2018-10-11T01:50:04.358Z,55.60
2018-10-11T01:52:32.647Z,55.60
2018-10-11T01:55:00.912Z,55.60
2018-10-11T01:57:29.156Z,55.50
2018-10-11T01:59:57.401Z,55.60
2018-10-11T02:02:25.640Z,55.60
2018-10-11T02:04:53.911Z,55.60
2018-10-11T02:07:22.939Z,55.80
2018-10-11T02:09:51.165Z,55.50
2018-10-11T02:12:19.404Z,55.60
2018-10-11T02:14:47.663Z,55.60
2018-10-11T02:17:15.908Z,55.60
2018-10-11T02:19:44.219Z,55.60
2018-10-11T02:22:12.469Z,55.70
2018-10-11T02:24:47.504Z,55.70
2018-10-11T02:27:15.767Z,55.70
2018-10-11T02:29:44.042Z,55.70
2018-10-11T02:32:12.316Z,55.80
2018-10-11T02:34:40.570Z,55.70
2018-10-11T02:37:09.029Z,55.70
2018-10-11T02:39:37.278Z,55.70
2018-10-11T02:42:05.532Z,55.70
2018-10-11T02:44:35.134Z,55.60
2018-10-11T02:47:03.352Z,55.70
2018-10-11T02:49:31.620Z,55.70
2018-10-11T02:51:59.933Z,55.70
2018-10-11T02:54:28.210Z,55.70
2018-10-11T02:57:02.138Z,55.80
2018-10-11T02:59:32.557Z,55.80
2018-10-11T03:02:02.732Z,55.80
2018-10-11T03:04:32.140Z,55.90
2018-10-11T03:07:00.393Z,55.70
2018-10-11T03:09:28.657Z,55.70
2018-10-11T03:11:56.916Z,55.80
2018-10-11T03:14:25.640Z,55.80
2018-10-11T03:16:53.889Z,55.80
2018-10-11T03:19:22.152Z,55.70
2018-10-11T03:21:50.382Z,55.70
2018-10-11T03:24:18.683Z,55.70
2018-10-11T03:26:46.904Z,55.70
2018-10-11T03:29:15.173Z,55.70
2018-10-11T03:31:43.453Z,55.70
2018-10-11T03:34:11.686Z,55.70
2018-10-11T03:36:39.970Z,55.70
2018-10-11T03:39:08.432Z,55.50
2018-10-11T03:41:36.709Z,55.50
2018-10-11T03:44:04.947Z,55.50
2018-10-11T03:46:33.255Z,55.60
2018-10-11T03:49:01.405Z,55.60
2018-10-11T03:51:30.029Z,55.60
2018-10-11T03:53:58.525Z,55.60
2018-10-11T03:56:26.800Z,55.50
2018-10-11T03:58:55.408Z,55.50
2018-10-11T04:01:24.006Z,55.50
2018-10-11T04:03:52.273Z,55.60
2018-10-11T04:06:20.585Z,55.60
2018-10-11T04:08:48.897Z,55.50
2018-10-11T04:11:17.148Z,55.50
2018-10-11T04:13:45.389Z,55.50
2018-10-11T04:16:13.653Z,55.50
2018-10-11T04:18:41.964Z,55.50
2018-10-11T04:21:10.692Z,55.50
2018-10-11T04:23:38.971Z,55.50
2018-10-11T04:26:07.257Z,55.50
2018-10-11T04:28:35.493Z,55.40
2018-10-11T04:31:03.755Z,55.50
2018-10-11T04:33:32.029Z,55.50
2018-10-11T04:36:00.288Z,55.60
2018-10-11T04:38:28.841Z,55.50
2018-10-11T04:40:57.085Z,55.50
2018-10-11T04:43:25.352Z,55.50
2018-10-11T04:45:53.649Z,55.40
2018-10-11T04:48:21.880Z,55.40
2018-10-11T04:50:50.121Z,55.40
2018-10-11T04:53:18.340Z,55.40
2018-10-11T04:55:46.585Z,55.40
2018-10-11T04:58:15.281Z,55.40
2018-10-11T05:00:43.513Z,55.00
2018-10-11T05:03:12.794Z,55.30
2018-10-11T05:05:42.059Z,55.40
2018-10-11T05:08:10.748Z,55.30
2018-10-11T05:10:39.057Z,55.30
2018-10-11T05:13:07.314Z,55.30
2018-10-11T05:15:36.522Z,55.30
2018-10-11T05:18:05.401Z,55.20
2018-10-11T05:20:33.681Z,55.20
2018-10-11T05:23:01.949Z,55.30
2018-10-11T05:25:30.276Z,55.30
2018-10-11T05:27:58.509Z,55.30
2018-10-11T05:30:26.858Z,55.30
2018-10-11T05:32:55.220Z,55.30
2018-10-11T05:35:23.457Z,55.10
2018-10-11T05:37:51.704Z,55.30
2018-10-11T05:40:19.974Z,55.30
2018-10-11T05:42:48.266Z,55.40
2018-10-11T05:45:17.725Z,55.50
2018-10-11T05:47:46.659Z,55.50
2018-10-11T05:50:14.973Z,55.40
2018-10-11T05:52:43.812Z,55.40
2018-10-11T05:55:12.422Z,55.40
2018-10-11T05:57:40.696Z,55.40
2018-10-11T06:00:10.013Z,55.30
2018-10-11T06:02:49.748Z,55.40
2018-10-11T06:05:18.027Z,55.40
2018-10-11T06:07:46.301Z,55.30
2018-10-11T06:10:14.680Z,55.30
2018-10-11T06:12:43.048Z,55.30
2018-10-11T06:15:11.768Z,55.30
2018-10-11T06:17:40.640Z,55.30
2018-10-11T06:20:08.810Z,55.30
2018-10-11T06:22:37.104Z,55.30
2018-10-11T06:25:05.389Z,55.20
2018-10-11T06:27:33.680Z,55.30
2018-10-11T06:30:01.950Z,55.90
2018-10-11T06:32:30.240Z,55.30
2018-10-11T06:34:58.531Z,56.00
2018-10-11T06:37:27.220Z,55.30
2018-10-11T06:39:56.116Z,55.30
2018-10-11T06:42:24.436Z,55.30
2018-10-11T06:44:53.634Z,55.30
2018-10-11T06:47:21.909Z,55.30
2018-10-11T06:49:50.254Z,55.20
2018-10-11T06:52:18.622Z,55.30
2018-10-11T06:54:46.942Z,55.30
2018-10-11T06:57:15.201Z,55.30
2018-10-11T06:59:43.572Z,55.20
2018-10-11T07:02:11.857Z,55.20
2018-10-11T07:04:40.105Z,55.20
2018-10-11T07:07:08.466Z,55.30
2018-10-11T07:09:36.664Z,55.20
2018-10-11T07:12:04.936Z,55.20
2018-10-11T07:14:33.190Z,55.30
2018-10-11T07:17:01.434Z,55.20
2018-10-11T07:19:29.732Z,55.20
2018-10-11T07:21:58.057Z,55.20
2018-10-11T07:24:26.531Z,55.20
2018-10-11T07:26:55.036Z,55.20
2018-10-11T07:29:23.275Z,55.20
2018-10-11T07:31:51.501Z,55.30
2018-10-11T07:34:19.794Z,55.10
2018-10-11T07:36:48.029Z,55.10
2018-10-11T07:39:16.330Z,55.10
2018-10-11T07:41:44.671Z,55.90
2018-10-11T07:44:12.934Z,55.30
2018-10-11T07:46:41.140Z,55.70
2018-10-11T07:49:09.410Z,55.30
2018-10-11T07:51:38.027Z,55.20
2018-10-11T07:54:06.431Z,55.00
2018-10-11T07:56:34.652Z,55.10
2018-10-11T07:59:03.064Z,55.30
2018-10-11T08:01:31.986Z,55.60
2018-10-11T08:04:00.165Z,55.30
2018-10-11T08:06:28.652Z,55.20
2018-10-11T08:08:56.985Z,55.30
2018-10-11T08:11:26.274Z,55.40
2018-10-11T08:13:54.605Z,55.40
2018-10-11T08:16:23.082Z,55.20
2018-10-11T08:18:51.599Z,55.10
2018-10-11T08:21:19.813Z,55.00
2018-10-11T08:23:48.073Z,54.90
2018-10-11T08:26:16.680Z,54.80
2018-10-11T08:28:44.578Z,54.70
2018-10-11T08:31:12.864Z,54.50
2018-10-11T08:33:41.108Z,54.60
2018-10-11T08:36:09.559Z,54.60
2018-10-11T08:38:37.885Z,54.50
2018-10-11T08:41:06.227Z,54.60
2018-10-11T08:43:34.584Z,54.60
2018-10-11T08:46:02.787Z,54.50
2018-10-11T08:48:31.156Z,54.70
2018-10-11T08:50:59.583Z,58.00
2018-10-11T08:53:27.718Z,56.40
2018-10-11T08:55:55.975Z,55.30
2018-10-11T08:58:24.180Z,56.90
2018-10-11T09:00:52.466Z,55.80
2018-10-11T09:03:20.784Z,55.80
2018-10-11T09:05:48.998Z,55.00
2018-10-11T09:08:17.255Z,55.80
2018-10-11T09:10:45.575Z,55.30
2018-10-11T09:13:13.817Z,56.60
2018-10-11T09:15:42.051Z,55.30
2018-10-11T09:18:10.297Z,59.10
2018-10-11T09:20:38.582Z,58.10
2018-10-11T09:23:06.984Z,56.50
2018-10-11T09:25:35.264Z,54.90
2018-10-11T09:28:03.517Z,55.40
2018-10-11T09:30:31.877Z,54.30
2018-10-11T09:33:00.005Z,54.30
2018-10-11T09:35:35.121Z,55.40
2018-10-11T09:38:03.381Z,53.90
2018-10-11T09:40:31.682Z,55.70
2018-10-11T09:42:59.993Z,56.30
2018-10-11T09:45:28.208Z,53.90
2018-10-11T09:47:56.516Z,54.50
2018-10-11T09:50:24.761Z,53.40
2018-10-11T09:52:53.020Z,53.10
2018-10-11T09:55:21.240Z,53.30
2018-10-11T09:57:50.188Z,53.80
2018-10-11T10:00:23.909Z,53.40
2018-10-11T10:02:52.598Z,52.90
2018-10-11T10:05:20.857Z,52.60
2018-10-11T10:07:49.132Z,52.40
2018-10-11T10:10:17.364Z,52.40
2018-10-11T10:12:45.613Z,52.30
2018-10-11T10:15:13.870Z,54.00
2018-10-11T10:17:42.152Z,52.60
2018-10-11T10:20:10.396Z,52.50
2018-10-11T10:22:38.661Z,52.20
2018-10-11T10:25:06.946Z,52.10
2018-10-11T10:27:35.563Z,53.10
2018-10-11T10:30:08.837Z,52.50
2018-10-11T10:32:37.130Z,52.30
2018-10-11T10:35:05.539Z,53.60
2018-10-11T10:37:34.001Z,52.60
2018-10-11T10:40:02.375Z,52.10
2018-10-11T10:42:30.559Z,52.50
2018-10-11T10:44:58.849Z,52.70
2018-10-11T10:47:27.161Z,52.40
2018-10-11T10:49:55.457Z,52.10
2018-10-11T10:52:23.750Z,51.80
2018-10-11T10:54:52.090Z,51.70
2018-10-11T10:57:21.746Z,51.60
2018-10-11T10:59:50.725Z,51.40
2018-10-11T11:02:19.056Z,51.20
2018-10-11T11:04:47.485Z,51.50
2018-10-11T11:07:15.792Z,51.40
2018-10-11T11:09:44.052Z,51.20
2018-10-11T11:12:12.322Z,51.00
2018-10-11T11:14:40.568Z,51.10
2018-10-11T11:17:08.875Z,51.30
2018-10-11T11:19:40.632Z,51.40
2018-10-11T11:22:09.630Z,51.30
2018-10-11T11:24:37.891Z,51.10
2018-10-11T11:27:06.405Z,51.20
2018-10-11T11:29:34.656Z,51.00
2018-10-11T11:32:02.889Z,50.80
2018-10-11T11:34:31.574Z,51.30
2018-10-11T11:36:59.867Z,51.30
2018-10-11T11:39:28.157Z,51.60
2018-10-11T11:41:56.408Z,51.30
2018-10-11T11:44:24.684Z,51.60
2018-10-11T11:46:52.937Z,51.70
2018-10-11T11:49:21.324Z,51.70
2018-10-11T11:51:49.569Z,51.70
2018-10-11T11:54:21.274Z,51.70
2018-10-11T11:56:50.513Z,51.70
2018-10-11T11:59:18.836Z,51.70
2018-10-11T12:01:47.123Z,51.90
2018-10-11T12:04:15.393Z,51.80
2018-10-11T12:06:43.667Z,51.90
2018-10-11T12:09:13.350Z,51.80
2018-10-11T12:11:41.872Z,51.80
2018-10-11T12:14:10.258Z,52.10
2018-10-11T12:16:39.004Z,52.30
2018-10-11T12:19:08.328Z,52.30
2018-10-11T12:21:36.848Z,52.40
2018-10-11T12:24:05.133Z,52.40
2018-10-11T12:26:33.470Z,53.00
2018-10-11T12:29:01.815Z,52.00
2018-10-11T12:31:30.014Z,52.50
2018-10-11T12:33:58.261Z,52.40
2018-10-11T12:36:26.571Z,52.50
2018-10-11T12:38:55.589Z,52.30
2018-10-11T12:41:23.106Z,52.40
2018-10-11T12:43:51.373Z,52.40
2018-10-11T12:46:19.651Z,52.30
2018-10-11T12:48:47.899Z,52.30
2018-10-11T12:51:16.136Z,52.00
2018-10-11T12:53:47.482Z,51.30
2018-10-11T12:56:12.772Z,52.10
2018-10-11T12:58:41.137Z,51.90
2018-10-11T13:01:09.416Z,51.70
2018-10-11T13:03:37.705Z,51.60
2018-10-11T13:06:05.971Z,51.50
2018-10-11T13:08:34.241Z,51.40
2018-10-11T13:11:02.509Z,51.40
2018-10-11T13:13:30.768Z,51.30
2018-10-11T13:16:01.399Z,51.30
2018-10-11T13:18:27.361Z,51.30
2018-10-11T13:20:55.638Z,51.20
2018-10-11T13:23:23.896Z,51.20
2018-10-11T13:25:52.136Z,51.10
2018-10-11T13:28:20.436Z,51.20
2018-10-11T13:30:48.689Z,51.20
2018-10-11T13:33:16.953Z,51.10
2018-10-11T13:35:45.213Z,50.50
2018-10-11T13:38:13.433Z,51.20
2018-10-11T13:40:42.055Z,51.10
2018-10-11T13:43:10.003Z,51.30
2018-10-11T13:45:38.285Z,51.40
2018-10-11T13:48:06.768Z,51.50
2018-10-11T13:50:35.037Z,51.50
2018-10-11T13:53:03.420Z,51.60
2018-10-11T13:55:31.589Z,51.70
2018-10-11T13:57:59.840Z,51.80
2018-10-11T14:00:28.104Z,51.60
2018-10-11T14:02:56.376Z,51.90
2018-10-11T14:05:25.649Z,52.30
2018-10-11T14:07:53.930Z,52.20
2018-10-11T14:10:22.255Z,52.10
2018-10-11T14:12:50.598Z,52.20
2018-10-11T14:15:18.868Z,52.40
2018-10-11T14:17:47.132Z,52.50
2018-10-11T14:20:15.440Z,52.60
2018-10-11T14:22:43.692Z,52.60
2018-10-11T14:25:11.960Z,52.30
2018-10-11T14:27:40.258Z,52.60
2018-10-11T14:30:08.564Z,52.80
2018-10-11T14:32:36.830Z,52.60
2018-10-11T14:35:05.166Z,53.00
2018-10-11T14:37:33.422Z,53.10
2018-10-11T14:40:01.816Z,53.10
2018-10-11T14:42:30.121Z,53.10
2018-10-11T14:44:58.429Z,53.10
2018-10-11T14:47:26.673Z,53.20
2018-10-11T14:49:54.969Z,53.20
2018-10-11T14:52:23.266Z,53.50
2018-10-11T14:54:51.565Z,53.70
2018-10-11T14:57:19.893Z,53.70
2018-10-11T14:59:48.265Z,53.70
2018-10-11T15:02:16.564Z,53.70
2018-10-11T15:04:44.839Z,53.70
2018-10-11T15:07:13.089Z,53.70
2018-10-11T15:09:41.369Z,53.70
2018-10-11T15:12:09.605Z,54.20
2018-10-11T15:14:37.846Z,53.90
2018-10-11T15:17:06.241Z,53.90
2018-10-11T15:19:35.499Z,54.00
2018-10-11T15:22:04.044Z,54.10
2018-10-11T15:24:32.382Z,54.00
2018-10-11T15:27:00.698Z,54.20
2018-10-11T15:29:29.254Z,54.30
2018-10-11T15:31:57.516Z,54.60
2018-10-11T15:34:25.742Z,55.10
2018-10-11T15:36:55.207Z,54.40
2018-10-11T15:39:23.529Z,54.60
2018-10-11T15:41:51.801Z,54.40
2018-10-11T15:44:20.140Z,54.50
2018-10-11T15:46:48.418Z,54.40
2018-10-11T15:49:16.699Z,54.40
2018-10-11T15:51:44.956Z,54.40
2018-10-11T15:54:13.213Z,54.60
2018-10-11T15:56:41.479Z,54.40
2018-10-11T15:59:09.821Z,54.40
2018-10-11T16:01:39.745Z,54.50
2018-10-11T16:04:08.012Z,54.50
2018-10-11T16:06:36.765Z,54.50
2018-10-11T16:09:07.103Z,54.50
2018-10-11T16:11:35.915Z,54.50
2018-10-11T16:14:04.203Z,54.50
2018-10-11T16:16:32.561Z,54.50
2018-10-11T16:19:00.996Z,54.50
2018-10-11T16:21:29.637Z,54.50
2018-10-11T16:23:57.950Z,54.50
2018-10-11T16:26:26.274Z,54.50
2018-10-11T16:28:54.552Z,54.60
2018-10-11T16:31:23.919Z,54.60
2018-10-11T16:33:53.204Z,54.60
2018-10-11T16:36:21.534Z,54.70
2018-10-11T16:38:50.139Z,56.10
2018-10-11T16:41:18.364Z,55.00
2018-10-11T16:43:46.675Z,54.90
2018-10-11T16:46:14.944Z,55.00
2018-10-11T16:48:43.225Z,55.00
2018-10-11T16:51:11.484Z,55.00
2018-10-11T16:53:39.740Z,55.10
2018-10-11T16:56:07.995Z,55.00
2018-10-11T16:58:36.257Z,55.10
2018-10-11T17:01:04.548Z,55.20
2018-10-11T17:03:32.780Z,55.20
2018-10-11T17:06:01.081Z,55.30
2018-10-11T17:08:29.313Z,55.40
2018-10-11T17:10:57.581Z,55.30
2018-10-11T17:13:25.819Z,55.40
2018-10-11T17:15:54.065Z,55.50
2018-10-11T17:18:22.323Z,55.70
2018-10-11T17:20:50.578Z,55.60
2018-10-11T17:23:18.835Z,55.60
2018-10-11T17:25:47.108Z,55.60
2018-10-11T17:28:15.386Z,55.60
2018-10-11T17:30:43.608Z,55.70
2018-10-11T17:33:11.879Z,55.80
2018-10-11T17:35:40.148Z,55.80
2018-10-11T17:38:08.565Z,55.80
2018-10-11T17:40:36.851Z,55.90
2018-10-11T17:43:05.261Z,55.90
2018-10-11T17:45:33.560Z,55.90
2018-10-11T17:48:01.849Z,56.00
2018-10-11T17:50:30.364Z,56.00
2018-10-11T17:52:58.632Z,56.10
2018-10-11T17:55:26.898Z,56.10
2018-10-11T17:57:55.176Z,56.80
2018-10-11T18:00:23.473Z,56.20
2018-10-11T18:02:51.741Z,56.20
2018-10-11T18:05:20.013Z,56.30
2018-10-11T18:07:48.250Z,56.40
2018-10-11T18:10:16.543Z,56.50
2018-10-11T18:12:44.980Z,56.50
2018-10-11T18:15:13.462Z,56.60
2018-10-11T18:17:41.693Z,56.70
2018-10-11T18:20:11.316Z,56.60
2018-10-11T18:22:39.606Z,56.70
2018-10-11T18:25:08.083Z,56.70
2018-10-11T18:27:36.378Z,56.70
2018-10-11T18:30:04.748Z,56.80
2018-10-11T18:32:33.000Z,56.80
2018-10-11T18:35:01.313Z,56.90
2018-10-11T18:37:29.580Z,56.80
2018-10-11T18:39:57.824Z,56.90
2018-10-11T18:42:26.135Z,56.90
2018-10-11T18:44:54.434Z,57.00
2018-10-11T18:47:22.728Z,57.00
2018-10-11T18:49:51.002Z,57.10
2018-10-11T18:52:19.291Z,57.10
2018-10-11T18:54:47.792Z,57.30
2018-10-11T18:57:16.044Z,57.10
2018-10-11T18:59:44.945Z,57.10
2018-10-11T19:02:13.268Z,57.10
2018-10-11T19:04:41.595Z,57.80
2018-10-11T19:07:10.149Z,57.30
2018-10-11T19:09:38.414Z,57.30
2018-10-11T19:12:06.672Z,57.20
2018-10-11T19:14:34.974Z,57.30
2018-10-11T19:17:03.260Z,57.30
2018-10-11T19:19:31.540Z,57.40
2018-10-11T19:21:59.840Z,57.30
2018-10-11T19:24:28.107Z,57.40
2018-10-11T19:26:56.397Z,57.50
2018-10-11T19:29:24.681Z,57.40
2018-10-11T19:31:52.949Z,57.50
2018-10-11T19:34:21.230Z,57.50
2018-10-11T19:36:49.492Z,57.50
2018-10-11T19:39:17.811Z,57.50
2018-10-11T19:41:46.045Z,57.60
2018-10-11T19:44:14.324Z,57.70
2018-10-11T19:46:42.553Z,57.60
2018-10-11T19:49:11.246Z,57.70
2018-10-11T19:51:39.509Z,57.70
2018-10-11T19:54:07.825Z,57.70
2018-10-11T19:56:36.117Z,57.70
2018-10-11T19:59:04.404Z,57.80
2018-10-11T20:01:32.686Z,57.90
2018-10-11T20:04:00.925Z,57.70
2018-10-11T20:06:29.164Z,57.90
2018-10-11T20:08:57.429Z,57.90
2018-10-11T20:11:25.728Z,57.90
2018-10-11T20:13:54.030Z,57.90
2018-10-11T20:16:22.373Z,57.90
2018-10-11T20:18:50.627Z,58.10
2018-10-11T20:21:18.930Z,58.00
2018-10-11T20:23:47.165Z,58.00
2018-10-11T20:26:15.434Z,58.00
2018-10-11T20:28:43.710Z,58.00
2018-10-11T20:31:11.944Z,58.10
2018-10-11T20:33:40.235Z,58.10
2018-10-11T20:36:08.525Z,58.30
2018-10-11T20:38:36.780Z,58.10
2018-10-11T20:41:05.069Z,58.20
2018-10-11T20:43:33.388Z,58.20
2018-10-11T20:46:01.622Z,58.20
2018-10-11T20:48:29.848Z,58.20
2018-10-11T20:50:58.115Z,58.20
2018-10-11T20:53:26.381Z,58.50
2018-10-11T20:55:54.677Z,58.20
2018-10-11T20:58:22.956Z,58.30
2018-10-11T21:00:51.225Z,58.30
2018-10-11T21:03:19.519Z,58.30
2018-10-11T21:05:47.770Z,58.40
2018-10-11T21:08:16.030Z,58.40
2018-10-11T21:10:44.289Z,58.60
2018-10-11T21:13:12.592Z,58.40
2018-10-11T21:15:40.853Z,58.50
2018-10-11T21:18:09.133Z,58.50
2018-10-11T21:20:37.378Z,58.50
2018-10-11T21:23:05.632Z,58.50
2018-10-11T21:25:33.895Z,58.50
2018-10-11T21:28:02.169Z,58.70
2018-10-11T21:30:30.402Z,58.50
2018-10-11T21:32:58.679Z,58.60
2018-10-11T21:35:26.951Z,58.60
2018-10-11T21:37:55.181Z,58.60
2018-10-11T21:40:23.481Z,58.60
2018-10-11T21:42:51.701Z,58.60
2018-10-11T21:45:19.972Z,59.00
2018-10-11T21:47:48.277Z,58.60
2018-10-11T21:50:16.542Z,58.70
2018-10-11T21:52:44.816Z,58.70
2018-10-11T21:55:13.069Z,58.70
2018-10-11T21:57:41.299Z,58.70
2018-10-11T22:00:09.714Z,58.80
2018-10-11T22:02:38.006Z,58.90
2018-10-11T22:05:06.282Z,58.80
2018-10-11T22:07:34.549Z,58.80
2018-10-11T22:10:02.809Z,58.80
2018-10-11T22:12:31.040Z,58.80
2018-10-11T22:14:59.402Z,58.80
2018-10-11T22:17:27.562Z,58.90
2018-10-11T22:19:55.993Z,58.90
2018-10-11T22:22:24.228Z,58.90
2018-10-11T22:24:52.501Z,58.90
2018-10-11T22:27:20.753Z,58.60
2018-10-11T22:29:49.008Z,58.90
2018-10-11T22:32:17.327Z,59.00
2018-10-11T22:34:45.578Z,59.00
2018-10-11T22:37:13.889Z,59.10
2018-10-11T22:39:42.073Z,59.00
2018-10-11T22:42:10.328Z,59.00
2018-10-11T22:44:38.606Z,59.00
2018-10-11T22:47:07.177Z,59.10
2018-10-11T22:49:35.497Z,59.10
2018-10-11T22:52:03.770Z,59.10
2018-10-11T22:54:32.096Z,59.20
2018-10-11T22:57:00.316Z,59.10
2018-10-11T22:59:28.597Z,59.10
2018-10-11T23:01:56.876Z,59.30
2018-10-11T23:04:25.234Z,59.10
2018-10-11T23:06:53.517Z,59.70
2018-10-11T23:09:21.757Z,59.20
2018-10-11T23:11:50.034Z,59.20
2018-10-11T23:14:18.264Z,59.10
2018-10-11T23:16:46.529Z,59.20
2018-10-11T23:19:14.788Z,59.10
2018-10-11T23:21:43.020Z,59.10
2018-10-11T23:24:11.304Z,59.20
2018-10-11T23:26:39.533Z,59.20
2018-10-11T23:29:07.796Z,59.20
2018-10-11T23:31:36.081Z,59.20
2018-10-11T23:34:04.364Z,59.10
2018-10-11T23:36:32.608Z,59.10
2018-10-11T23:39:00.860Z,59.10
2018-10-11T23:41:29.108Z,59.20
2018-10-11T23:43:57.349Z,59.20
2018-10-11T23:46:25.633Z,59.20
2018-10-11T23:48:53.895Z,59.20
2018-10-11T23:51:22.172Z,59.10
2018-10-11T23:53:50.469Z,59.10
2018-10-11T23:56:18.725Z,59.10
2018-10-11T23:58:46.997Z,59.10
